Time;durP1;ratioP1;P1;durP2;ratioP2;P2;SDS_P1;SDS_P2;PMS_P1;PMS_P2;Temp;Humidity;BMP_temperature;BMP_pressure;BME280_temperature;BME280_humidity;BME280_pressure;Samples;Min_cycle;Max_cycle;Signal;HPM_P1;HPM_P2
2022/07/03 00:01:10;;;;;;;7.68;5.03;;;;;;;16.34;94.95;101689.50;5028675;28;20466;-76
2022/07/03 00:03:36;;;;;;;8.63;5.45;;;;;;;16.38;94.26;101688.31;5028977;28;20040;-76
2022/07/03 00:06:01;;;;;;;6.22;5.28;;;;;;;16.34;94.96;101684.13;5029725;28;20040;-77
2022/07/03 00:08:27;;;;;;;8.55;5.07;;;;;;;16.37;95.22;101694.69;5029608;28;20095;-76
2022/07/03 00:10:52;;;;;;;10.60;5.70;;;;;;;16.34;95.07;101673.34;5029838;28;20033;-75
2022/07/03 00:13:18;;;;;;;5.82;4.68;;;;;;;16.36;95.53;101681.31;5027166;28;20401;-75
2022/07/03 00:15:43;;;;;;;7.75;5.25;;;;;;;16.39;94.90;101681.94;5026753;28;20240;-76
2022/07/03 00:18:09;;;;;;;8.93;6.00;;;;;;;16.39;95.52;101671.19;5011441;28;20038;-75
2022/07/03 00:20:40;;;;;;;6.88;5.93;;;;;;;16.27;95.18;101672.97;5007818;28;20107;-76
2022/07/03 00:23:10;;;;;;;9.73;5.00;;;;;;;16.21;95.57;101661.78;5009173;28;20721;-76
2022/07/03 00:25:38;;;;;;;10.55;6.07;;;;;;;16.01;95.63;101657.84;5008451;28;20613;-76
2022/07/03 00:28:05;;;;;;;8.23;5.90;;;;;;;15.90;96.53;101657.78;5010319;28;20050;-76
2022/07/03 00:30:30;;;;;;;7.35;5.63;;;;;;;15.98;95.83;101656.25;5009634;28;20061;-77
2022/07/03 00:32:56;;;;;;;6.60;4.88;;;;;;;15.97;96.02;101657.25;5009040;28;20057;-76
2022/07/03 00:35:22;;;;;;;8.20;5.68;;;;;;;15.88;96.73;101665.13;5012737;23;20069;-64
2022/07/03 00:37:48;;;;;;;6.97;5.20;;;;;;;15.81;96.40;101664.69;4989369;28;20933;-63
2022/07/03 00:40:14;;;;;;;8.80;5.07;;;;;;;15.73;96.79;101662.56;4987657;28;20073;-64
2022/07/03 00:42:40;;;;;;;10.82;5.35;;;;;;;15.75;97.10;101657.94;4988445;28;20046;-63
2022/07/03 00:45:08;;;;;;;10.77;6.32;;;;;;;15.78;96.69;101659.53;4969410;28;20046;-62
2022/07/03 00:47:36;;;;;;;9.52;6.30;;;;;;;15.78;96.62;101657.72;4988744;28;20046;-63
2022/07/03 00:50:06;;;;;;;9.23;6.35;;;;;;;15.55;98.45;101653.09;4970255;28;20037;-63
2022/07/03 00:52:33;;;;;;;8.82;6.28;;;;;;;15.71;97.78;101663.63;4988685;28;20053;-63
2022/07/03 00:54:59;;;;;;;7.90;5.40;;;;;;;15.70;97.55;101643.94;4988191;28;20053;-64
2022/07/03 00:57:30;;;;;;;9.35;6.32;;;;;;;15.57;98.43;101656.53;4987747;28;20041;-64
2022/07/03 00:59:57;;;;;;;7.65;6.03;;;;;;;15.56;98.85;101654.78;4987606;28;20038;-64
2022/07/03 01:02:50;;;;;;;11.60;6.05;;;;;;;15.68;97.82;101643.22;4987445;28;20124;-64
2022/07/03 01:05:18;;;;;;;10.52;6.47;;;;;;;15.61;97.75;101647.25;4986933;28;20038;-62
2022/07/03 01:08:11;;;;;;;12.60;5.65;;;;;;;15.55;98.01;101648.56;4985794;28;20384;-63
2022/07/03 01:10:36;;;;;;;;;;;;;;;15.40;96.35;101648.78;4988131;28;20046;-64
2022/07/03 01:13:42;;;;;;;7.57;4.57;;;;;;;15.18;96.88;101649.47;4988026;28;19925;-63
2022/07/03 01:16:13;;;;;;;8.00;5.85;;;;;;;14.94;98.27;101650.19;4987770;28;20053;-62
2022/07/03 01:18:49;;;;;;;7.57;5.07;;;;;;;14.92;98.12;101643.22;4969636;28;20357;-63
2022/07/03 01:21:36;;;;;;;7.18;5.65;;;;;;;15.00;98.50;101640.84;4969766;28;20042;-64
2022/07/03 01:24:44;;;;;;;6.13;5.53;;;;;;;14.84;99.95;101649.09;4969070;28;20053;-64
2022/07/03 01:27:18;;;;;;;9.43;6.28;;;;;;;14.93;99.45;101639.56;4969466;28;20141;-63
2022/07/03 01:30:01;;;;;;;6.82;5.55;;;;;;;14.94;99.69;101647.50;4969884;28;20133;-64
2022/07/03 01:32:32;;;;;;;6.47;5.80;;;;;;;15.01;99.27;101640.75;4970130;28;20042;-64
2022/07/03 01:35:01;;;;;;;8.88;5.90;;;;;;;14.93;99.92;101636.88;4969444;28;20054;-63
2022/07/03 01:37:29;;;;;;;12.80;6.97;;;;;;;14.89;100.00;101630.84;4969001;28;20085;-64
2022/07/03 01:39:58;;;;;;;10.18;6.45;;;;;;;14.89;100.00;101628.16;4973733;28;20049;-63
2022/07/03 01:42:24;;;;;;;6.97;6.28;;;;;;;14.69;100.00;101634.88;4988654;28;20061;-63
2022/07/03 01:44:54;;;;;;;8.65;5.68;;;;;;;14.69;100.00;101632.19;4988637;28;20054;-63
2022/07/03 01:47:22;;;;;;;9.57;6.00;;;;;;;14.74;99.50;101631.91;4988953;28;20046;-63
2022/07/03 01:49:49;;;;;;;13.70;6.40;;;;;;;14.77;99.62;101629.88;4989369;28;20657;-64
2022/07/03 01:52:16;;;;;;;11.55;7.50;;;;;;;14.80;100.00;101639.53;4969449;28;20140;-63
2022/07/03 01:54:44;;;;;;;9.27;6.88;;;;;;;14.80;99.97;101636.84;4989558;28;20049;-64
2022/07/03 01:57:09;;;;;;;12.63;7.18;;;;;;;14.94;99.45;101631.38;4988866;28;20050;-63
2022/07/03 01:59:35;;;;;;;8.93;6.72;;;;;;;14.67;100.00;101625.22;4971189;28;20068;-64
2022/07/03 02:02:12;;;;;;;6.53;4.60;;;;;;;14.27;97.86;101633.25;4988005;28;20037;-63
2022/07/03 02:04:45;;;;;;;6.40;4.88;;;;;;;14.27;98.28;101625.19;4991073;28;20042;-63
2022/07/03 02:07:20;;;;;;;10.43;4.68;;;;;;;14.25;98.87;101619.91;4990435;28;20084;-63
2022/07/03 02:09:49;;;;;;;9.13;6.00;;;;;;;14.14;100.00;101625.13;4991477;28;20057;-64
2022/07/03 02:12:18;;;;;;;8.95;7.45;;;;;;;14.12;100.00;101631.56;4991056;28;20056;-63
2022/07/03 02:14:56;;;;;;;9.57;6.63;;;;;;;14.04;100.00;101637.41;4990679;28;20044;-63
2022/07/03 02:17:23;;;;;;;9.90;8.27;;;;;;;14.28;100.00;101647.50;4980647;28;20100;-63
2022/07/03 02:19:59;;;;;;;12.13;10.52;;;;;;;14.53;100.00;101647.63;4952710;28;20574;-63
2022/07/03 02:22:30;;;;;;;9.95;8.95;;;;;;;14.65;100.00;101646.78;4951520;28;20131;-63
2022/07/03 02:25:04;;;;;;;17.00;9.55;;;;;;;14.70;100.00;101647.34;4970142;28;20047;-63
2022/07/03 02:27:41;;;;;;;19.55;10.27;;;;;;;14.77;100.00;101647.81;4971151;28;20042;-63
2022/07/03 02:30:07;;;;;;;11.30;9.18;;;;;;;14.79;100.00;101642.31;4970514;28;20127;-62
2022/07/03 02:32:37;;;;;;;10.48;7.70;;;;;;;14.87;100.00;101646.22;4971845;28;20035;-64
2022/07/03 02:35:07;;;;;;;10.00;8.50;;;;;;;14.81;100.00;101646.63;4971224;28;20045;-62
2022/07/03 02:37:43;;;;;;;9.18;7.63;;;;;;;14.95;99.27;101654.59;4972233;28;20045;-63
2022/07/03 02:40:19;;;;;;;10.05;7.80;;;;;;;14.97;98.85;101638.38;4976701;28;20076;-63
2022/07/03 02:42:53;;;;;;;11.23;7.40;;;;;;;14.91;99.12;101654.91;4990542;28;20402;-63
2022/07/03 02:45:22;;;;;;;8.15;7.28;;;;;;;14.89;98.88;101652.31;4989296;28;20402;-62
2022/07/03 02:48:02;;;;;;;8.68;7.15;;;;;;;14.95;98.16;101642.97;4989860;28;20034;-62
2022/07/03 02:50:28;;;;;;;10.25;6.53;;;;;;;14.97;97.56;101635.69;4990079;28;20489;-62
2022/07/03 02:53:24;;;;;;;9.27;6.85;;;;;;;15.09;96.40;101650.09;4989499;28;20046;-63
2022/07/03 02:55:55;;;;;;;9.57;6.45;;;;;;;15.08;96.50;101649.25;4991159;28;20045;-63
2022/07/03 02:58:45;;;;;;;11.75;6.47;;;;;;;15.01;96.09;101651.50;4990314;28;20046;-63
2022/07/03 03:01:24;;;;;;;12.07;6.80;;;;;;;15.08;95.41;101656.44;4990000;28;20037;-63
2022/07/03 03:04:14;;;;;;;10.18;5.95;;;;;;;14.90;96.09;101651.34;4990556;28;20448;-63
2022/07/03 03:06:52;;;;;;;11.82;6.60;;;;;;;14.71;96.66;101658.97;4990351;28;20034;-63
2022/07/03 03:09:27;;;;;;;8.00;6.00;;;;;;;14.70;97.14;101652.72;4989871;28;20045;-64
2022/07/03 03:11:59;;;;;;;11.23;6.32;;;;;;;14.70;96.63;101652.72;4990293;28;20394;-63
2022/07/03 03:14:36;;;;;;;15.80;7.30;;;;;;;14.36;98.31;101655.94;4990014;28;20088;-62
2022/07/03 03:17:05;;;;;;;14.88;6.60;;;;;;;14.34;99.09;101649.78;4965718;28;20153;-62
2022/07/03 03:19:39;;;;;;;6.63;5.85;;;;;;;14.38;98.81;101644.13;4969879;28;20038;-63
2022/07/03 03:22:39;;;;;;;9.57;6.68;;;;;;;14.43;98.68;101652.72;4969018;28;20048;-63
2022/07/03 03:25:05;;;;;;;8.85;6.47;;;;;;;14.39;98.51;101659.25;4969641;28;20895;-63
2022/07/03 03:27:30;;;;;;;8.85;6.40;;;;;;;14.39;98.10;101659.25;4970243;28;20125;-63
2022/07/03 03:29:56;;;;;;;6.32;5.57;;;;;;;14.53;97.38;101655.69;4970805;28;20034;-63
2022/07/03 03:32:24;;;;;;;9.07;6.43;;;;;;;14.58;97.67;101666.97;4970644;28;20038;-63
2022/07/03 03:34:50;;;;;;;11.85;7.22;;;;;;;14.40;97.01;101668.16;4968882;28;20050;-64
2022/07/03 03:37:15;;;;;;;7.30;6.15;;;;;;;14.37;96.80;101658.50;4969578;28;20088;-64
2022/07/03 03:39:42;;;;;;;8.65;6.60;;;;;;;14.32;98.21;101673.19;4969889;28;20074;-63
2022/07/03 03:42:08;;;;;;;8.70;6.95;;;;;;;14.53;96.84;101666.41;4969195;28;20912;-63
2022/07/03 03:44:33;;;;;;;8.95;6.97;;;;;;;14.67;96.43;101666.34;4970050;28;20043;-63
2022/07/03 03:46:59;;;;;;;8.30;6.28;;;;;;;14.67;96.78;101671.72;4968806;28;20090;-63
2022/07/03 03:49:25;;;;;;;10.68;6.32;;;;;;;14.68;96.79;101675.28;4970825;28;20129;-62
2022/07/03 03:51:50;;;;;;;7.30;6.60;;;;;;;14.53;96.20;101677.16;4952981;28;20112;-63
2022/07/03 03:54:16;;;;;;;9.32;5.72;;;;;;;14.72;96.44;101669.59;4968895;28;20819;-64
2022/07/03 03:56:41;;;;;;;11.80;6.78;;;;;;;14.92;95.54;101664.69;4974770;28;20486;-64
2022/07/03 03:59:07;;;;;;;8.07;6.18;;;;;;;14.88;95.86;101680.16;4989396;28;20561;-64
2022/07/03 04:01:32;;;;;;;9.93;6.50;;;;;;;14.91;96.22;101681.75;4988186;28;20041;-62
2022/07/03 04:03:59;;;;;;;7.43;6.47;;;;;;;15.14;94.56;101672.13;4988466;28;20393;-63
2022/07/03 04:06:25;;;;;;;7.43;6.63;;;;;;;15.38;94.11;101674.94;4970967;28;20053;-62
2022/07/03 04:08:50;;;;;;;9.73;6.05;;;;;;;15.60;92.62;101680.50;4988789;28;20054;-63
2022/07/03 04:11:16;;;;;;;9.13;6.55;;;;;;;15.76;92.48;101673.13;4987354;28;20119;-63
2022/07/03 04:13:41;;;;;;;9.32;6.93;;;;;;;15.96;91.25;101673.47;4988929;28;20369;-63
2022/07/03 04:16:06;;;;;;;9.18;6.57;;;;;;;16.15;90.43;101668.47;4987696;28;20037;-63
2022/07/03 04:18:32;;;;;;;14.90;7.47;;;;;;;16.22;91.01;101664.38;4951748;28;20046;-62
2022/07/03 04:20:58;;;;;;;9.15;6.32;;;;;;;16.14;90.66;101666.75;4967605;28;20026;-63
2022/07/03 04:23:24;;;;;;;7.03;5.75;;;;;;;16.39;90.57;101664.94;4968187;28;20136;-62
2022/07/03 04:25:49;;;;;;;8.48;6.07;;;;;;;16.53;89.69;101664.78;4950857;28;20041;-63
2022/07/03 04:28:15;;;;;;;9.55;6.32;;;;;;;16.61;89.54;101665.03;4967563;28;20566;-64
2022/07/03 04:30:40;;;;;;;7.88;5.65;;;;;;;16.63;90.64;101662.25;4967461;28;20045;-63
2022/07/03 04:33:06;;;;;;;9.07;5.90;;;;;;;16.45;90.32;101661.78;4949426;28;20042;-63
2022/07/03 04:35:32;;;;;;;10.73;5.75;;;;;;;16.44;90.52;101660.06;4968345;28;20038;-64
2022/07/03 04:37:57;;;;;;;7.88;5.45;;;;;;;16.48;90.05;101661.56;4967523;28;20927;-64
2022/07/03 04:40:22;;;;;;;8.25;6.57;;;;;;;16.55;90.43;101666.34;4957266;28;20077;-63
2022/07/03 04:42:48;;;;;;;14.27;6.13;;;;;;;16.50;90.34;101663.16;4988123;28;20057;-63
2022/07/03 04:45:13;;;;;;;7.85;6.45;;;;;;;16.44;91.52;101668.16;4988455;28;20076;-63
2022/07/03 04:47:39;;;;;;;7.30;6.45;;;;;;;16.46;91.80;101661.66;4992867;28;20318;-64
2022/07/03 04:50:05;;;;;;;8.02;6.70;;;;;;;16.34;92.69;101665.28;4992158;28;20042;-64
2022/07/03 04:52:30;;;;;;;8.85;6.82;;;;;;;16.29;93.20;101667.47;4992484;28;20030;-65
2022/07/03 04:54:56;;;;;;;11.40;6.57;;;;;;;16.07;94.48;101676.28;4974203;28;20046;-64
2022/07/03 04:57:21;;;;;;;11.60;6.25;;;;;;;16.24;93.80;101683.94;4991388;28;20046;-64
2022/07/03 04:59:47;;;;;;;10.30;6.93;;;;;;;17.01;90.23;101691.66;4992050;28;20038;-64
2022/07/03 05:02:12;;;;;;;7.13;6.43;;;;;;;17.76;86.60;101683.94;4973543;28;20042;-64
2022/07/03 05:04:38;;;;;;;8.00;6.10;;;;;;;17.93;86.28;101679.06;4991955;28;20809;-62
2022/07/03 05:07:04;;;;;;;10.60;6.10;;;;;;;17.83;85.93;101684.34;4991832;28;20038;-64
2022/07/03 05:09:29;;;;;;;9.82;6.57;;;;;;;18.11;86.19;101678.38;4993418;28;20092;-64
2022/07/03 05:11:55;;;;;;;7.38;5.15;;;;;;;18.26;84.84;101678.97;4974912;28;20126;-64
2022/07/03 05:14:20;;;;;;;11.18;6.90;;;;;;;19.33;80.08;101672.63;4972749;28;20184;-63
2022/07/03 05:16:46;;;;;;;9.43;6.05;;;;;;;20.84;74.89;101673.50;4986983;28;20031;-63
2022/07/03 05:19:11;;;;;;;6.28;5.45;;;;;;;21.88;72.07;101669.78;4953833;28;20042;-64
2022/07/03 05:21:37;;;;;;;10.45;5.78;;;;;;;22.43;68.22;101667.03;4972435;28;20042;-64
2022/07/03 05:24:02;;;;;;;8.82;4.95;;;;;;;22.69;64.10;101664.44;4970897;28;20057;-64
2022/07/03 05:26:28;;;;;;;7.90;4.80;;;;;;;22.84;62.25;101672.91;4972184;28;20525;-65
2022/07/03 05:28:53;;;;;;;6.45;4.60;;;;;;;23.28;60.64;101672.91;4971652;28;20471;-64
2022/07/03 05:31:19;;;;;;;5.22;4.32;;;;;;;23.65;58.91;101677.25;4972122;28;20043;-63
2022/07/03 05:33:44;;;;;;;6.35;3.30;;;;;;;23.18;57.53;101680.31;4972206;28;20097;-64
2022/07/03 05:36:10;;;;;;;5.03;3.67;;;;;;;21.51;63.66;101687.97;4972247;28;20058;-65
2022/07/03 05:41:19;;;;;;;4.68;3.97;;;;;;;20.41;68.19;101690.97;4986543;28;20072;-64
2022/07/03 05:43:45;;;;;;;8.13;4.70;;;;;;;20.26;69.55;101681.56;4992109;28;20034;-64
2022/07/03 05:46:10;;;;;;;10.05;4.43;;;;;;;21.32;65.92;101678.88;4991753;28;20050;-63
2022/07/03 05:48:36;;;;;;;7.15;3.60;;;;;;;22.66;62.82;101681.06;4992477;28;20132;-64
2022/07/03 05:51:02;;;;;;;7.18;4.05;;;;;;;22.88;61.71;101679.75;4990948;28;20133;-63
2022/07/03 05:53:28;;;;;;;5.75;3.35;;;;;;;23.45;60.53;101671.16;4991917;28;20049;-64
2022/07/03 05:55:53;;;;;;;8.10;3.72;;;;;;;23.47;60.07;101667.25;4992062;28;20026;-63
2022/07/03 05:58:18;;;;;;;6.18;3.35;;;;;;;23.49;57.36;101676.13;4989548;28;20038;-63
2022/07/03 06:00:44;;;;;;;9.23;3.70;;;;;;;22.76;58.82;101683.69;4991596;28;20037;-64
2022/07/03 06:03:10;;;;;;;5.93;3.75;;;;;;;23.11;57.89;101677.38;4991115;28;20030;-65
2022/07/03 06:05:35;;;;;;;8.68;3.78;;;;;;;23.61;58.24;101676.69;4991960;28;20037;-64
2022/07/03 06:08:01;;;;;;;5.88;3.67;;;;;;;23.80;56.95;101675.63;4990436;28;20038;-64
2022/07/03 06:10:28;;;;;;;6.93;3.47;;;;;;;23.85;56.68;101680.59;4991981;28;20033;-65
2022/07/03 06:12:54;;;;;;;6.60;3.53;;;;;;;22.42;60.91;101678.94;4988059;28;20888;-63
2022/07/03 06:15:20;;;;;;;6.65;3.95;;;;;;;21.41;65.86;101683.41;4989235;28;20963;-63
2022/07/03 06:17:45;;;;;;;6.45;3.80;;;;;;;20.40;68.41;101686.56;4990617;28;20097;-63
2022/07/03 06:20:11;;;;;;;5.32;3.40;;;;;;;20.35;68.66;101691.56;4995388;28;20033;-64
2022/07/03 06:22:37;;;;;;;6.97;4.00;;;;;;;20.80;67.95;101691.91;5003145;28;20033;-64
2022/07/03 06:25:04;;;;;;;11.02;3.92;;;;;;;20.77;69.27;101694.03;4999640;28;20056;-63
2022/07/03 06:27:29;;;;;;;5.60;3.67;;;;;;;21.93;65.56;101696.50;4994792;28;20030;-63
2022/07/03 06:29:55;;;;;;;9.55;4.10;;;;;;;22.51;63.06;101692.63;5006303;28;20159;-64
2022/07/03 06:32:20;;;;;;;3.58;3.08;;;;;;;23.01;63.71;101687.50;4989386;28;20038;-62
2022/07/03 06:34:46;;;;;;;4.75;3.38;;;;;;;23.20;60.79;101686.47;4997422;28;20070;-63
2022/07/03 06:37:12;;;;;;;5.15;2.60;;;;;;;24.06;58.16;101688.34;4997285;28;20038;-64
2022/07/03 06:39:38;;;;;;;10.60;2.60;;;;;;;23.33;58.81;101689.59;5001869;28;20049;-65
2022/07/03 06:42:04;;;;;;;4.97;2.83;;;;;;;23.45;58.01;101692.94;4989224;28;20046;-64
2022/07/03 06:44:29;;;;;;;5.28;3.00;;;;;;;23.53;58.98;101693.81;5003537;28;20395;-63
2022/07/03 06:46:54;;;;;;;2.47;2.20;;;;;;;24.51;55.94;101688.81;4997523;28;20032;-64
2022/07/03 06:49:20;;;;;;;4.93;2.10;;;;;;;24.34;57.39;101686.19;4996360;28;20522;-63
2022/07/03 06:51:46;;;;;;;3.45;2.15;;;;;;;24.12;56.70;101682.22;4990170;28;20136;-63
2022/07/03 06:54:11;;;;;;;3.40;2.05;;;;;;;23.81;54.92;101692.81;4991818;28;20552;-64
2022/07/03 06:56:36;;;;;;;6.53;2.33;;;;;;;23.79;55.17;101690.25;5004600;28;20034;-64
2022/07/03 06:59:02;;;;;;;7.13;2.13;;;;;;;24.28;53.64;101691.28;4998482;28;20053;-65
2022/07/03 07:01:28;;;;;;;5.03;1.98;;;;;;;24.47;53.20;101686.59;4995252;28;20046;-64
2022/07/03 07:03:53;;;;;;;2.85;1.85;;;;;;;23.85;56.39;101692.34;5005325;28;20055;-64
2022/07/03 07:06:19;;;;;;;5.10;2.15;;;;;;;24.43;54.36;101696.97;4992644;28;20037;-64
2022/07/03 07:08:44;;;;;;;4.43;1.85;;;;;;;25.02;54.59;101686.81;4984055;28;20037;-64
2022/07/03 07:11:10;;;;;;;7.05;2.05;;;;;;;24.59;52.62;101684.38;4996960;28;20034;-64
2022/07/03 07:13:35;;;;;;;6.18;2.15;;;;;;;25.07;52.25;101686.34;5002514;28;20122;-64
2022/07/03 07:16:01;;;;;;;5.60;2.22;;;;;;;24.49;54.26;101688.13;4991814;28;20148;-63
2022/07/03 07:18:26;;;;;;;5.90;1.85;;;;;;;24.44;54.57;101686.91;4994880;28;20850;-65
2022/07/03 07:20:52;;;;;;;4.72;2.50;;;;;;;23.76;56.22;101691.44;4999724;28;20038;-64
2022/07/03 07:23:17;;;;;;;3.75;2.30;;;;;;;23.84;55.90;101696.06;4997505;28;21041;-64
2022/07/03 07:25:43;;;;;;;3.55;1.90;;;;;;;24.49;52.69;101690.84;4973412;28;20315;-64
2022/07/03 07:28:08;;;;;;;5.00;2.53;;;;;;;24.21;56.20;101690.25;4989607;28;20046;-64
2022/07/03 07:30:34;;;;;;;9.18;2.30;;;;;;;24.53;53.69;101694.09;5008017;28;20045;-64
2022/07/03 07:32:59;;;;;;;6.45;1.90;;;;;;;25.18;51.88;101698.78;4997447;28;20086;-64
2022/07/03 07:35:24;;;;;;;7.25;1.75;;;;;;;25.27;53.30;101700.47;4979865;28;20045;-63
2022/07/03 07:37:50;;;;;;;5.93;1.73;;;;;;;24.93;53.06;101697.91;4987199;28;20092;-64
2022/07/03 07:40:15;;;;;;;4.07;1.70;;;;;;;25.22;51.83;101697.41;4976958;28;20119;-64
2022/07/03 07:42:42;;;;;;;3.72;1.60;;;;;;;25.01;54.05;101706.09;4999886;28;20129;-64
2022/07/03 07:45:08;;;;;;;3.95;1.70;;;;;;;25.83;50.09;101704.97;4978592;28;20264;-63
2022/07/03 07:47:34;;;;;;;4.72;1.50;;;;;;;25.00;50.69;101701.63;4991839;28;20048;-65
2022/07/03 07:49:59;;;;;;;5.45;1.60;;;;;;;25.44;50.87;101704.03;5000402;28;20037;-64
2022/07/03 07:52:25;;;;;;;6.65;1.90;;;;;;;25.08;49.89;101709.88;4972686;28;20037;-64
2022/07/03 07:54:50;;;;;;;4.70;1.60;;;;;;;25.52;50.43;101709.47;4999718;28;20046;-64
2022/07/03 07:57:16;;;;;;;5.68;1.35;;;;;;;25.70;51.21;101710.09;4987319;28;20046;-64
2022/07/03 07:59:41;;;;;;;4.00;1.92;;;;;;;26.68;47.91;101704.22;5001940;28;20052;-63
2022/07/03 08:07:35;;;;;;;5.63;1.75;;;;;;;25.77;49.70;101716.63;5000932;28;20042;-64
2022/07/03 08:10:00;;;;;;;7.05;2.35;;;;;;;25.92;51.85;101719.47;4970925;28;20044;-64
2022/07/03 08:12:26;;;;;;;4.28;1.83;;;;;;;25.62;50.76;101725.69;5003043;28;20059;-64
2022/07/03 08:14:51;;;;;;;3.92;1.77;;;;;;;25.19;51.89;101719.59;4994607;28;20041;-64
2022/07/03 08:17:17;;;;;;;3.03;1.50;;;;;;;26.07;48.64;101720.44;4985554;28;20030;-64
2022/07/03 08:19:42;;;;;;;4.25;1.83;;;;;;;25.26;51.09;101724.19;4986079;28;20930;-64
2022/07/03 08:22:08;;;;;;;4.88;1.42;;;;;;;25.79;51.34;101716.44;4987364;28;20041;-64
2022/07/03 08:24:33;;;;;;;2.90;1.60;;;;;;;25.39;49.21;101723.66;4985404;28;20045;-64
2022/07/03 08:26:59;;;;;;;3.03;1.15;;;;;;;25.21;49.79;101721.13;4968561;28;20034;-64
2022/07/03 08:29:24;;;;;;;1.77;1.13;;;;;;;25.70;47.17;101725.63;4986246;28;20038;-64
2022/07/03 08:31:50;;;;;;;4.95;1.30;;;;;;;25.38;47.19;101729.31;4988583;28;20041;-63
2022/07/03 08:34:16;;;;;;;3.15;1.48;;;;;;;25.34;48.13;101723.31;4982678;28;20836;-64
2022/07/03 08:36:42;;;;;;;2.97;0.90;;;;;;;26.74;47.74;101716.31;4985501;28;20359;-64
2022/07/03 08:39:09;;;;;;;5.80;1.33;;;;;;;25.09;46.63;101722.47;4966636;28;20046;-64
2022/07/03 08:41:39;;;;;;;1.52;1.20;;;;;;;25.43;46.60;101725.03;4965080;28;20038;-63
2022/07/03 08:44:05;;;;;;;2.78;1.35;;;;;;;26.23;48.83;101729.59;4985047;28;20042;-64
2022/07/03 08:46:32;;;;;;;2.78;1.20;;;;;;;25.56;46.01;101736.28;4989863;28;20038;-64
2022/07/03 08:48:59;;;;;;;3.63;1.10;;;;;;;25.82;51.04;101736.06;5000685;28;20032;-64
2022/07/03 08:51:24;;;;;;;2.80;1.67;;;;;;;26.05;48.86;101729.81;5001526;28;20041;-64
2022/07/03 08:53:53;;;;;;;3.30;1.65;;;;;;;25.75;48.67;101731.47;5000643;28;20181;-64
2022/07/03 08:56:23;;;;;;;0.98;0.90;;;;;;;25.20;45.30;101726.75;4976990;28;20037;-64
2022/07/03 08:58:48;;;;;;;3.00;0.80;;;;;;;25.41;47.14;101727.09;4989550;28;20061;-63
2022/07/03 09:01:15;;;;;;;2.13;1.10;;;;;;;25.72;48.02;101719.00;4990461;28;20903;-64
2022/07/03 09:03:42;;;;;;;3.30;1.40;;;;;;;25.04;47.80;101728.41;4998428;28;20183;-63
2022/07/03 09:06:08;;;;;;;3.15;0.98;;;;;;;25.09;48.61;101727.94;5000486;28;20125;-63
2022/07/03 09:08:36;;;;;;;2.58;1.20;;;;;;;25.54;47.31;101723.81;5003518;28;20041;-63
2022/07/03 09:11:03;;;;;;;2.22;1.20;;;;;;;26.38;47.02;101722.31;4990208;28;20042;-64
2022/07/03 09:13:29;;;;;;;2.72;1.20;;;;;;;25.85;49.51;101729.38;4980304;28;20433;-64
2022/07/03 09:15:55;;;;;;;2.63;1.10;;;;;;;26.40;48.30;101725.72;4977165;28;20045;-64
2022/07/03 09:18:41;;;;;;;2.38;1.20;;;;;;;26.09;46.98;101721.09;4985461;28;20033;-63
2022/07/03 09:21:08;;;;;;;3.75;1.13;;;;;;;25.97;47.25;101722.53;4987149;28;20052;-64
2022/07/03 09:23:42;;;;;;;5.28;1.20;;;;;;;25.76;48.53;101722.25;4991762;28;20042;-64
2022/07/03 09:26:16;;;;;;;1.50;1.00;;;;;;;25.67;47.54;101715.06;5000603;28;20458;-64
2022/07/03 09:28:44;;;;;;;1.38;1.23;;;;;;;25.58;51.16;101716.97;5001797;28;20041;-64
2022/07/03 09:31:12;;;;;;;3.08;1.20;;;;;;;25.37;47.15;101719.41;4998111;28;20467;-63
2022/07/03 09:34:00;;;;;;;2.05;1.20;;;;;;;25.54;50.21;101715.59;4991869;28;20068;-65
2022/07/03 09:36:46;;;;;;;2.60;1.40;;;;;;;25.59;51.53;101721.41;4979035;28;20144;-65
2022/07/03 09:39:15;;;;;;;5.28;1.25;;;;;;;25.11;50.85;101719.59;4991023;28;20038;-65
2022/07/03 09:41:59;;;;;;;4.03;1.40;;;;;;;25.78;49.92;101717.47;4994085;28;20050;-65
2022/07/03 09:44:37;;;;;;;5.50;1.02;;;;;;;25.64;49.63;101720.88;4978620;28;20038;-66
2022/07/03 09:47:23;;;;;;;1.50;1.27;;;;;;;26.02;48.16;101719.25;4990014;28;20045;-64
2022/07/03 09:49:58;;;;;;;5.20;0.95;;;;;;;25.68;47.46;101722.25;4993050;28;20033;-66
2022/07/03 09:52:37;;;;;;;3.88;1.02;;;;;;;25.34;49.72;101719.75;4965879;28;20038;-64
2022/07/03 09:55:08;;;;;;;4.50;1.10;;;;;;;26.17;49.37;101716.63;5000591;28;20481;-65
2022/07/03 09:57:34;;;;;;;2.55;1.42;;;;;;;25.72;47.72;101726.34;4989774;28;20117;-65
2022/07/03 10:00:08;;;;;;;2.95;0.93;;;;;;;25.40;47.47;101729.97;4973369;28;20037;-65
2022/07/03 10:02:34;;;;;;;5.22;1.00;;;;;;;24.86;47.65;101722.28;4972318;28;20057;-66
2022/07/03 10:05:12;;;;;;;3.20;1.35;;;;;;;25.98;47.22;101724.22;4987898;28;20080;-65
2022/07/03 10:07:57;;;;;;;2.22;1.10;;;;;;;26.03;48.53;101729.16;4991462;28;20080;-65
2022/07/03 10:10:24;;;;;;;3.40;1.10;;;;;;;25.56;49.60;101739.00;4977678;28;20048;-64
2022/07/03 10:12:51;;;;;;;4.55;1.27;;;;;;;25.46;49.07;101741.06;4988739;28;20038;-65
2022/07/03 10:15:17;;;;;;;4.20;1.08;;;;;;;24.97;50.26;101738.31;5001248;28;20050;-65
2022/07/03 10:17:46;;;;;;;7.53;1.20;;;;;;;25.44;51.64;101732.19;4993305;28;20140;-66
2022/07/03 10:20:14;;;;;;;2.00;1.00;;;;;;;25.25;49.03;101738.00;4983190;28;20038;-65
2022/07/03 10:22:45;;;;;;;1.17;0.80;;;;;;;25.55;49.98;101730.97;5002014;28;20060;-65
2022/07/03 10:25:11;;;;;;;1.77;0.70;;;;;;;25.57;47.53;101731.66;5001828;28;20052;-64
2022/07/03 10:27:37;;;;;;;2.80;0.98;;;;;;;25.21;48.90;101736.66;5000509;28;20120;-63
2022/07/03 10:30:03;;;;;;;3.63;1.02;;;;;;;24.97;48.43;101735.59;4998843;28;20042;-66
2022/07/03 10:32:32;;;;;;;8.38;0.88;;;;;;;25.37;48.91;101733.91;5001840;28;20098;-65
2022/07/03 10:34:58;;;;;;;2.00;1.00;;;;;;;25.44;48.58;101737.66;4994023;28;20046;-64
2022/07/03 10:37:28;;;;;;;1.30;1.10;;;;;;;25.62;51.50;101740.19;4991524;28;20477;-64
2022/07/03 10:46:12;;;;;;;4.75;0.90;;;;;;;24.97;49.66;101741.06;5001978;28;20133;-65
2022/07/03 10:48:57;;;;;;;3.38;1.15;;;;;;;25.14;52.51;101736.47;4980883;28;20037;-65
2022/07/03 10:51:24;;;;;;;5.05;1.83;;;;;;;25.63;50.37;101743.78;4985122;28;20049;-64
2022/07/03 10:53:50;;;;;;;2.03;1.08;;;;;;;26.11;52.15;101741.97;4989886;28;20038;-65
2022/07/03 10:56:16;;;;;;;3.83;1.50;;;;;;;26.12;48.58;101744.50;4982024;28;20026;-65
2022/07/03 10:59:00;;;;;;;2.63;1.25;;;;;;;25.34;50.52;101745.16;4969026;28;20603;-65
2022/07/03 11:01:29;;;;;;;3.03;1.35;;;;;;;25.25;50.60;101752.53;4971717;28;20073;-64
2022/07/03 11:03:59;;;;;;;7.80;1.38;;;;;;;25.37;52.59;101747.56;5002314;28;20800;-65
2022/07/03 11:06:42;;;;;;;3.15;1.33;;;;;;;25.82;51.65;101751.63;4993996;28;20042;-65
2022/07/03 11:09:17;;;;;;;4.35;1.60;;;;;;;26.20;50.63;101749.91;4997948;28;20045;-65
2022/07/03 11:11:56;;;;;;;4.47;1.42;;;;;;;26.22;49.81;101749.78;4997293;28;20045;-65
2022/07/03 11:14:22;;;;;;;4.68;1.38;;;;;;;26.33;49.97;101746.63;4998406;28;20253;-63
2022/07/03 11:16:48;;;;;;;1.92;1.17;;;;;;;26.93;53.16;101745.94;4994770;28;20051;-63
2022/07/03 11:19:15;;;;;;;3.58;1.00;;;;;;;26.02;50.07;101749.34;4993498;28;20041;-65
2022/07/03 11:21:50;;;;;;;2.50;0.95;;;;;;;25.62;50.05;101748.38;4990897;28;20033;-65
2022/07/03 11:24:39;;;;;;;7.57;1.35;;;;;;;25.56;50.34;101749.94;4984815;28;20033;-65
2022/07/03 11:27:23;;;;;;;2.85;1.40;;;;;;;24.85;52.02;101752.44;5001288;28;20076;-63
2022/07/03 11:29:50;;;;;;;3.25;1.40;;;;;;;24.26;53.65;101755.19;4997135;28;20044;-64
2022/07/03 11:32:49;;;;;;;5.40;1.55;;;;;;;24.19;53.74;101743.22;4966398;28;20387;-65
2022/07/03 11:35:46;;;;;;;4.03;1.38;;;;;;;24.77;51.35;101728.75;4994612;28;20049;-65
2022/07/03 11:38:16;;;;;;;3.00;1.00;;;;;;;25.31;52.65;101734.59;4993180;28;20741;-64
2022/07/03 11:40:44;;;;;;;3.65;1.20;;;;;;;25.06;49.73;101736.47;4998400;28;20044;-64
2022/07/03 11:43:11;;;;;;;1.70;0.90;;;;;;;25.36;50.38;101734.94;5000331;28;20041;-64
2022/07/03 11:45:41;;;;;;;3.08;1.38;;;;;;;25.36;50.16;101734.09;5000078;28;20043;-64
2022/07/03 11:48:12;;;;;;;6.07;1.30;;;;;;;24.47;52.28;101736.53;4995991;28;20048;-63